sensor_id;sensor_type;location;lat;lon;timestamp;pressure;altitude;pressure_sealevel;temperature;humidity
6435;BME280;3250;42.694;23.278;2022-07-10T00:02:08;94761.44;;;16.51;91.19
6435;BME280;3250;42.694;23.278;2022-07-10T00:04:33;94770.22;;;16.51;90.66
6435;BME280;3250;42.694;23.278;2022-07-10T00:06:58;94758.72;;;16.46;90.97
6435;BME280;3250;42.694;23.278;2022-07-10T00:09:27;94757.63;;;16.42;91.10
6435;BME280;3250;42.694;23.278;2022-07-10T00:11:53;94754.72;;;16.21;91.83
6435;BME280;3250;42.694;23.278;2022-07-10T00:14:19;94756.97;;;16.08;92.90
6435;BME280;3250;42.694;23.278;2022-07-10T00:16:45;94720.91;;;15.90;92.96
6435;BME280;3250;42.694;23.278;2022-07-10T00:19:11;94755.53;;;16.22;92.92
6435;BME280;3250;42.694;23.278;2022-07-10T00:21:36;94751.38;;;16.09;92.82
6435;BME280;3250;42.694;23.278;2022-07-10T00:24:02;94757.50;;;16.10;92.89
6435;BME280;3250;42.694;23.278;2022-07-10T00:26:27;94752.50;;;16.13;92.86
6435;BME280;3250;42.694;23.278;2022-07-10T00:28:53;94746.22;;;15.98;93.48
6435;BME280;3250;42.694;23.278;2022-07-10T00:31:19;94746.63;;;16.11;93.20
6435;BME280;3250;42.694;23.278;2022-07-10T00:33:44;94747.81;;;16.20;92.87
6435;BME280;3250;42.694;23.278;2022-07-10T00:36:09;94740.97;;;16.25;92.51
6435;BME280;3250;42.694;23.278;2022-07-10T00:38:35;94747.97;;;16.36;91.86
6435;BME280;3250;42.694;23.278;2022-07-10T00:41:00;94749.09;;;16.40;91.58
6435;BME280;3250;42.694;23.278;2022-07-10T00:43:26;94744.78;;;16.34;91.64
6435;BME280;3250;42.694;23.278;2022-07-10T00:45:51;94731.06;;;16.20;91.52
6435;BME280;3250;42.694;23.278;2022-07-10T00:48:17;94745.75;;;16.28;91.83
6435;BME280;3250;42.694;23.278;2022-07-10T00:50:44;94737.31;;;16.31;91.59
6435;BME280;3250;42.694;23.278;2022-07-10T00:53:12;94736.09;;;16.16;91.96
6435;BME280;3250;42.694;23.278;2022-07-10T00:55:38;94733.44;;;16.16;92.10
6435;BME280;3250;42.694;23.278;2022-07-10T00:58:06;94736.69;;;16.23;92.01
6435;BME280;3250;42.694;23.278;2022-07-10T01:00:32;94735.13;;;16.28;91.73
6435;BME280;3250;42.694;23.278;2022-07-10T01:02:58;94732.84;;;16.36;91.07
6435;BME280;3250;42.694;23.278;2022-07-10T01:05:24;94736.50;;;16.30;91.17
6435;BME280;3250;42.694;23.278;2022-07-10T01:07:49;94736.34;;;16.15;91.46
6435;BME280;3250;42.694;23.278;2022-07-10T01:10:14;94730.91;;;16.05;92.33
6435;BME280;3250;42.694;23.278;2022-07-10T01:12:40;94727.63;;;15.98;92.57
6435;BME280;3250;42.694;23.278;2022-07-10T01:15:06;94704.34;;;15.83;92.62
6435;BME280;3250;42.694;23.278;2022-07-10T01:17:32;94725.69;;;15.93;93.14
6435;BME280;3250;42.694;23.278;2022-07-10T01:19:58;94723.13;;;15.98;93.44
6435;BME280;3250;42.694;23.278;2022-07-10T01:22:23;94719.91;;;15.96;93.36
6435;BME280;3250;42.694;23.278;2022-07-10T01:24:48;94716.22;;;15.97;93.33
6435;BME280;3250;42.694;23.278;2022-07-10T01:27:14;94718.66;;;16.04;93.23
6435;BME280;3250;42.694;23.278;2022-07-10T01:29:39;94650.13;;;15.57;93.37
6435;BME280;3250;42.694;23.278;2022-07-10T01:32:05;94713.47;;;15.92;93.88
6435;BME280;3250;42.694;23.278;2022-07-10T01:34:31;94710.34;;;15.95;94.09
6435;BME280;3250;42.694;23.278;2022-07-10T01:36:56;94704.91;;;15.85;93.96
6435;BME280;3250;42.694;23.278;2022-07-10T01:39:22;94704.47;;;15.93;94.28
6435;BME280;3250;42.694;23.278;2022-07-10T01:41:47;94701.38;;;16.01;94.00
6435;BME280;3250;42.694;23.278;2022-07-10T01:44:13;94703.84;;;16.08;92.99
6435;BME280;3250;42.694;23.278;2022-07-10T01:46:45;94703.06;;;16.07;93.11
6435;BME280;3250;42.694;23.278;2022-07-10T01:49:11;94707.25;;;16.03;92.85
6435;BME280;3250;42.694;23.278;2022-07-10T01:51:36;94707.31;;;16.08;92.88
6435;BME280;3250;42.694;23.278;2022-07-10T01:54:02;94710.25;;;16.12;92.82
6435;BME280;3250;42.694;23.278;2022-07-10T01:56:27;94711.19;;;16.22;92.09
6435;BME280;3250;42.694;23.278;2022-07-10T01:58:52;94705.38;;;16.04;92.40
6435;BME280;3250;42.694;23.278;2022-07-10T02:01:18;94703.53;;;16.04;92.06
6435;BME280;3250;42.694;23.278;2022-07-10T02:03:44;94704.38;;;16.10;92.14
6435;BME280;3250;42.694;23.278;2022-07-10T02:06:27;94693.03;;;16.14;91.81
6435;BME280;3250;42.694;23.278;2022-07-10T02:08:53;94691.75;;;16.17;91.73
6435;BME280;3250;42.694;23.278;2022-07-10T02:11:18;94698.72;;;16.23;91.16
6435;BME280;3250;42.694;23.278;2022-07-10T02:13:44;94698.16;;;16.21;91.25
6435;BME280;3250;42.694;23.278;2022-07-10T02:16:09;94679.44;;;16.11;91.02
6435;BME280;3250;42.694;23.278;2022-07-10T02:18:36;94688.09;;;16.01;91.92
6435;BME280;3250;42.694;23.278;2022-07-10T02:21:01;94688.38;;;16.00;91.68
6435;BME280;3250;42.694;23.278;2022-07-10T02:23:27;94688.38;;;16.00;91.74
6435;BME280;3250;42.694;23.278;2022-07-10T02:25:53;94690.13;;;15.94;92.20
6435;BME280;3250;42.694;23.278;2022-07-10T02:28:18;94688.69;;;15.81;92.65
6435;BME280;3250;42.694;23.278;2022-07-10T02:30:44;94691.94;;;15.89;92.59
6435;BME280;3250;42.694;23.278;2022-07-10T02:33:09;94692.66;;;15.84;92.69
6435;BME280;3250;42.694;23.278;2022-07-10T02:35:35;94691.94;;;15.89;92.62
6435;BME280;3250;42.694;23.278;2022-07-10T02:38:00;94680.75;;;15.87;92.34
6435;BME280;3250;42.694;23.278;2022-07-10T02:40:25;94678.66;;;15.67;92.89
6435;BME280;3250;42.694;23.278;2022-07-10T02:42:51;94683.66;;;15.63;93.28
6435;BME280;3250;42.694;23.278;2022-07-10T02:45:16;94684.59;;;15.74;93.12
6435;BME280;3250;42.694;23.278;2022-07-10T02:47:42;94672.25;;;15.63;92.90
6435;BME280;3250;42.694;23.278;2022-07-10T02:50:08;94693.09;;;15.76;92.83
6435;BME280;3250;42.694;23.278;2022-07-10T02:52:33;94692.94;;;15.82;92.65
6435;BME280;3250;42.694;23.278;2022-07-10T02:54:59;94696.75;;;15.92;92.31
6435;BME280;3250;42.694;23.278;2022-07-10T02:57:24;94696.63;;;15.81;92.18
6435;BME280;3250;42.694;23.278;2022-07-10T02:59:50;94702.91;;;15.75;92.67
6435;BME280;3250;42.694;23.278;2022-07-10T03:02:16;94699.84;;;15.62;92.96
6435;BME280;3250;42.694;23.278;2022-07-10T03:04:41;94708.91;;;15.66;93.02
6435;BME280;3250;42.694;23.278;2022-07-10T03:07:07;94709.22;;;15.69;93.07
6435;BME280;3250;42.694;23.278;2022-07-10T03:09:32;94714.19;;;15.66;93.23
6435;BME280;3250;42.694;23.278;2022-07-10T03:11:57;94718.78;;;15.70;93.10
6435;BME280;3250;42.694;23.278;2022-07-10T03:14:23;94709.13;;;15.81;92.87
6435;BME280;3250;42.694;23.278;2022-07-10T03:16:48;94715.59;;;15.90;92.03
6435;BME280;3250;42.694;23.278;2022-07-10T03:19:14;94698.78;;;15.84;91.70
6435;BME280;3250;42.694;23.278;2022-07-10T03:21:40;94724.31;;;16.07;91.18
6435;BME280;3250;42.694;23.278;2022-07-10T03:24:05;94721.94;;;16.11;90.81
6435;BME280;3250;42.694;23.278;2022-07-10T03:26:31;94722.94;;;16.05;91.02
6435;BME280;3250;42.694;23.278;2022-07-10T03:28:56;94726.97;;;16.07;91.10
6435;BME280;3250;42.694;23.278;2022-07-10T03:31:22;94717.00;;;15.98;91.76
6435;BME280;3250;42.694;23.278;2022-07-10T03:33:48;94726.41;;;16.05;91.59
6435;BME280;3250;42.694;23.278;2022-07-10T03:36:14;94700.72;;;15.89;91.66
6435;BME280;3250;42.694;23.278;2022-07-10T03:38:40;94725.34;;;16.06;91.64
6435;BME280;3250;42.694;23.278;2022-07-10T03:41:05;94698.00;;;16.06;91.47
6435;BME280;3250;42.694;23.278;2022-07-10T03:43:31;94716.09;;;16.36;91.04
6435;BME280;3250;42.694;23.278;2022-07-10T03:45:57;94704.66;;;16.35;89.91
6435;BME280;3250;42.694;23.278;2022-07-10T03:48:23;94701.19;;;16.35;89.83
6435;BME280;3250;42.694;23.278;2022-07-10T03:50:51;94711.34;;;16.38;90.21
6435;BME280;3250;42.694;23.278;2022-07-10T03:53:18;94719.88;;;16.40;90.27
6435;BME280;3250;42.694;23.278;2022-07-10T03:55:43;94716.88;;;16.58;90.06
6435;BME280;3250;42.694;23.278;2022-07-10T03:58:08;94706.88;;;16.65;89.29
6435;BME280;3250;42.694;23.278;2022-07-10T04:00:34;94713.13;;;16.81;88.88
6435;BME280;3250;42.694;23.278;2022-07-10T04:03:02;94714.72;;;16.82;88.03
6435;BME280;3250;42.694;23.278;2022-07-10T04:05:28;94715.50;;;16.77;88.29
6435;BME280;3250;42.694;23.278;2022-07-10T04:07:54;94707.00;;;16.80;88.58
6435;BME280;3250;42.694;23.278;2022-07-10T04:10:22;94707.72;;;17.03;88.15
6435;BME280;3250;42.694;23.278;2022-07-10T04:12:48;94711.06;;;17.25;87.24
6435;BME280;3250;42.694;23.278;2022-07-10T04:15:13;94709.88;;;17.43;86.93
6435;BME280;3250;42.694;23.278;2022-07-10T04:17:39;94705.09;;;17.50;85.38
6435;BME280;3250;42.694;23.278;2022-07-10T04:20:05;94704.88;;;17.56;85.49
6435;BME280;3250;42.694;23.278;2022-07-10T04:22:30;94700.50;;;17.72;85.87
6435;BME280;3250;42.694;23.278;2022-07-10T04:24:56;94702.16;;;17.88;84.36
6435;BME280;3250;42.694;23.278;2022-07-10T04:27:21;94704.06;;;18.03;83.31
6435;BME280;3250;42.694;23.278;2022-07-10T04:29:48;94700.13;;;18.16;83.26
6435;BME280;3250;42.694;23.278;2022-07-10T04:32:16;94701.28;;;18.40;82.59
6435;BME280;3250;42.694;23.278;2022-07-10T04:34:42;94691.47;;;18.61;82.15
6435;BME280;3250;42.694;23.278;2022-07-10T04:37:07;94706.69;;;18.85;80.44
6435;BME280;3250;42.694;23.278;2022-07-10T04:39:34;94706.97;;;19.04;79.10
6435;BME280;3250;42.694;23.278;2022-07-10T04:42:00;94679.50;;;18.99;78.31
6435;BME280;3250;42.694;23.278;2022-07-10T04:44:26;94701.63;;;19.35;78.05
6435;BME280;3250;42.694;23.278;2022-07-10T04:46:51;94689.34;;;19.54;76.67
6435;BME280;3250;42.694;23.278;2022-07-10T04:49:17;94716.25;;;19.88;75.77
6435;BME280;3250;42.694;23.278;2022-07-10T04:51:42;94703.34;;;20.00;74.20
6435;BME280;3250;42.694;23.278;2022-07-10T04:54:08;94717.44;;;20.21;74.10
6435;BME280;3250;42.694;23.278;2022-07-10T04:56:33;94717.38;;;20.41;72.70
6435;BME280;3250;42.694;23.278;2022-07-10T04:58:59;94707.78;;;20.40;72.56
6435;BME280;3250;42.694;23.278;2022-07-10T05:01:24;94715.66;;;20.65;72.11
6435;BME280;3250;42.694;23.278;2022-07-10T05:03:49;94708.22;;;20.96;71.22
6435;BME280;3250;42.694;23.278;2022-07-10T05:06:15;94715.72;;;21.33;69.62
6435;BME280;3250;42.694;23.278;2022-07-10T05:08:40;94717.88;;;21.60;68.51
6435;BME280;3250;42.694;23.278;2022-07-10T05:11:06;94718.28;;;21.72;68.40
6435;BME280;3250;42.694;23.278;2022-07-10T05:13:31;94719.19;;;22.15;68.49
6435;BME280;3250;42.694;23.278;2022-07-10T05:15:57;94715.84;;;22.66;66.08
6435;BME280;3250;42.694;23.278;2022-07-10T05:18:22;94718.97;;;23.11;64.77
6435;BME280;3250;42.694;23.278;2022-07-10T05:20:47;94708.00;;;23.26;62.53
6435;BME280;3250;42.694;23.278;2022-07-10T05:23:15;94719.28;;;23.60;61.72
6435;BME280;3250;42.694;23.278;2022-07-10T05:25:41;94716.22;;;23.81;61.49
6435;BME280;3250;42.694;23.278;2022-07-10T05:28:06;94717.25;;;24.12;62.27
6435;BME280;3250;42.694;23.278;2022-07-10T05:30:32;94726.91;;;24.40;59.81
6435;BME280;3250;42.694;23.278;2022-07-10T05:32:57;94714.91;;;24.74;59.92
6435;BME280;3250;42.694;23.278;2022-07-10T05:35:23;94714.44;;;25.08;58.51
6435;BME280;3250;42.694;23.278;2022-07-10T05:37:49;94716.94;;;25.27;56.75
6435;BME280;3250;42.694;23.278;2022-07-10T05:40:14;94713.31;;;25.53;56.73
6435;BME280;3250;42.694;23.278;2022-07-10T05:42:40;94707.31;;;25.79;55.24
6435;BME280;3250;42.694;23.278;2022-07-10T05:45:06;94710.09;;;26.27;55.70
6435;BME280;3250;42.694;23.278;2022-07-10T05:47:32;94694.59;;;26.58;53.70
6435;BME280;3250;42.694;23.278;2022-07-10T05:49:59;94704.50;;;26.80;53.47
6435;BME280;3250;42.694;23.278;2022-07-10T05:52:24;94708.97;;;27.11;52.29
6435;BME280;3250;42.694;23.278;2022-07-10T05:54:50;94711.81;;;27.57;52.75
6435;BME280;3250;42.694;23.278;2022-07-10T05:57:16;94698.06;;;27.79;49.30
6435;BME280;3250;42.694;23.278;2022-07-10T05:59:42;94705.56;;;27.83;50.12
6435;BME280;3250;42.694;23.278;2022-07-10T06:02:07;94702.81;;;27.91;49.25
6435;BME280;3250;42.694;23.278;2022-07-10T06:04:33;94710.31;;;27.77;48.84
6435;BME280;3250;42.694;23.278;2022-07-10T06:06:59;94701.59;;;27.71;51.37
6435;BME280;3250;42.694;23.278;2022-07-10T06:09:24;94700.50;;;27.72;50.20
6435;BME280;3250;42.694;23.278;2022-07-10T06:11:50;94711.81;;;27.49;50.47
6435;BME280;3250;42.694;23.278;2022-07-10T06:14:15;94696.53;;;27.35;50.54
6435;BME280;3250;42.694;23.278;2022-07-10T06:16:41;94703.88;;;27.26;50.60
6435;BME280;3250;42.694;23.278;2022-07-10T06:19:06;94703.56;;;27.28;51.88
6435;BME280;3250;42.694;23.278;2022-07-10T06:21:32;94696.88;;;27.17;51.17
6435;BME280;3250;42.694;23.278;2022-07-10T06:23:57;94693.34;;;26.82;50.94
6435;BME280;3250;42.694;23.278;2022-07-10T06:26:23;94701.00;;;26.80;53.35
6435;BME280;3250;42.694;23.278;2022-07-10T06:28:48;94698.31;;;26.97;52.57
6435;BME280;3250;42.694;23.278;2022-07-10T06:31:13;94695.75;;;27.09;52.60
6435;BME280;3250;42.694;23.278;2022-07-10T06:33:39;94682.72;;;27.28;52.15
6435;BME280;3250;42.694;23.278;2022-07-10T06:36:05;94691.31;;;27.22;50.25
6435;BME280;3250;42.694;23.278;2022-07-10T06:38:31;94669.81;;;26.74;49.71
6435;BME280;3250;42.694;23.278;2022-07-10T06:40:56;94682.75;;;25.36;53.46
6435;BME280;3250;42.694;23.278;2022-07-10T06:43:22;94681.97;;;24.77;57.22
6435;BME280;3250;42.694;23.278;2022-07-10T06:45:47;94684.72;;;24.63;57.10
6435;BME280;3250;42.694;23.278;2022-07-10T06:48:13;94685.69;;;24.67;56.62
6435;BME280;3250;42.694;23.278;2022-07-10T06:50:40;94681.63;;;24.56;57.31
6435;BME280;3250;42.694;23.278;2022-07-10T06:53:06;94673.88;;;24.55;57.11
6435;BME280;3250;42.694;23.278;2022-07-10T06:55:32;94674.25;;;24.62;56.98
6435;BME280;3250;42.694;23.278;2022-07-10T06:57:57;94680.16;;;24.86;58.86
6435;BME280;3250;42.694;23.278;2022-07-10T07:00:23;94675.25;;;25.02;57.08
6435;BME280;3250;42.694;23.278;2022-07-10T07:02:49;94679.16;;;25.18;56.60
6435;BME280;3250;42.694;23.278;2022-07-10T07:05:15;94671.94;;;25.27;54.72
6435;BME280;3250;42.694;23.278;2022-07-10T07:07:41;94632.06;;;24.93;56.45
6435;BME280;3250;42.694;23.278;2022-07-10T07:10:07;94673.91;;;25.13;56.98
6435;BME280;3250;42.694;23.278;2022-07-10T07:12:33;94675.06;;;24.98;56.13
6435;BME280;3250;42.694;23.278;2022-07-10T07:14:58;94677.94;;;25.02;58.34
6435;BME280;3250;42.694;23.278;2022-07-10T07:17:24;94672.28;;;25.34;57.63
6435;BME280;3250;42.694;23.278;2022-07-10T07:20:02;94631.94;;;25.51;55.65
6435;BME280;3250;42.694;23.278;2022-07-10T07:22:47;94672.25;;;25.79;57.40
6435;BME280;3250;42.694;23.278;2022-07-10T07:25:31;94672.69;;;26.03;54.34
6435;BME280;3250;42.694;23.278;2022-07-10T07:27:57;94650.19;;;26.25;52.86
6435;BME280;3250;42.694;23.278;2022-07-10T07:30:22;94674.03;;;26.32;54.07
6435;BME280;3250;42.694;23.278;2022-07-10T07:32:48;94665.16;;;26.31;51.59
6435;BME280;3250;42.694;23.278;2022-07-10T07:35:15;94673.13;;;26.45;55.53
6435;BME280;3250;42.694;23.278;2022-07-10T07:37:41;94668.75;;;26.92;52.59
6435;BME280;3250;42.694;23.278;2022-07-10T07:40:09;94675.41;;;27.29;50.87
6435;BME280;3250;42.694;23.278;2022-07-10T07:42:35;94674.59;;;27.54;49.84
6435;BME280;3250;42.694;23.278;2022-07-10T07:45:01;94667.72;;;27.65;50.64
6435;BME280;3250;42.694;23.278;2022-07-10T07:47:27;94659.88;;;27.81;48.78
6435;BME280;3250;42.694;23.278;2022-07-10T07:49:53;94662.28;;;28.12;49.39
6435;BME280;3250;42.694;23.278;2022-07-10T07:52:18;94668.59;;;28.33;50.69
6435;BME280;3250;42.694;23.278;2022-07-10T07:54:43;94656.84;;;28.50;47.41
6435;BME280;3250;42.694;23.278;2022-07-10T07:57:09;94625.28;;;28.54;46.36
6435;BME280;3250;42.694;23.278;2022-07-10T07:59:34;94666.22;;;28.82;46.74
6435;BME280;3250;42.694;23.278;2022-07-10T08:02:00;94642.25;;;28.63;45.07
6435;BME280;3250;42.694;23.278;2022-07-10T08:04:25;94655.25;;;28.20;45.82
6435;BME280;3250;42.694;23.278;2022-07-10T08:06:51;94653.13;;;27.96;47.27
6435;BME280;3250;42.694;23.278;2022-07-10T08:09:20;94653.47;;;27.86;49.28
6435;BME280;3250;42.694;23.278;2022-07-10T08:11:45;94637.63;;;28.05;47.97
6435;BME280;3250;42.694;23.278;2022-07-10T08:14:11;94648.72;;;27.83;47.28
6435;BME280;3250;42.694;23.278;2022-07-10T08:16:37;94649.44;;;27.54;47.33
6435;BME280;3250;42.694;23.278;2022-07-10T08:19:03;94633.63;;;27.73;47.45
6435;BME280;3250;42.694;23.278;2022-07-10T08:21:28;94653.59;;;27.98;47.62
6435;BME280;3250;42.694;23.278;2022-07-10T08:23:55;94654.94;;;28.21;47.28
6435;BME280;3250;42.694;23.278;2022-07-10T08:26:21;94656.31;;;28.57;46.49
6435;BME280;3250;42.694;23.278;2022-07-10T08:28:46;94657.25;;;28.61;46.02
6435;BME280;3250;42.694;23.278;2022-07-10T08:31:11;94658.28;;;28.77;44.83
6435;BME280;3250;42.694;23.278;2022-07-10T08:33:37;94655.56;;;28.98;47.66
6435;BME280;3250;42.694;23.278;2022-07-10T08:36:03;94659.72;;;29.16;44.42
6435;BME280;3250;42.694;23.278;2022-07-10T08:38:29;94655.66;;;28.60;44.75
6435;BME280;3250;42.694;23.278;2022-07-10T08:40:56;94655.78;;;28.63;45.90
6435;BME280;3250;42.694;23.278;2022-07-10T08:43:24;94656.72;;;28.17;46.34
6435;BME280;3250;42.694;23.278;2022-07-10T08:45:53;94641.66;;;28.28;47.31
6435;BME280;3250;42.694;23.278;2022-07-10T08:48:23;94663.00;;;28.30;46.45
6435;BME280;3250;42.694;23.278;2022-07-10T08:50:52;94658.97;;;28.06;44.47
6435;BME280;3250;42.694;23.278;2022-07-10T08:53:29;94640.53;;;27.45;46.08
6435;BME280;3250;42.694;23.278;2022-07-10T08:55:55;94651.56;;;26.79;45.49
6435;BME280;3250;42.694;23.278;2022-07-10T08:58:22;94641.84;;;26.52;49.59
6435;BME280;3250;42.694;23.278;2022-07-10T09:00:48;94620.72;;;26.46;50.42
6435;BME280;3250;42.694;23.278;2022-07-10T09:03:13;94614.16;;;26.29;48.52
6435;BME280;3250;42.694;23.278;2022-07-10T09:05:38;94650.09;;;26.56;49.27
6435;BME280;3250;42.694;23.278;2022-07-10T09:08:04;94645.66;;;26.60;49.91
6435;BME280;3250;42.694;23.278;2022-07-10T09:10:46;94646.94;;;26.71;51.22
6435;BME280;3250;42.694;23.278;2022-07-10T09:13:11;94646.97;;;27.14;49.97
6435;BME280;3250;42.694;23.278;2022-07-10T09:15:36;94639.78;;;27.27;48.69
6435;BME280;3250;42.694;23.278;2022-07-10T09:18:03;94623.22;;;27.28;48.51
6435;BME280;3250;42.694;23.278;2022-07-10T09:20:37;94635.97;;;27.19;48.70
6435;BME280;3250;42.694;23.278;2022-07-10T09:23:21;94630.91;;;27.09;47.75
6435;BME280;3250;42.694;23.278;2022-07-10T09:25:49;94628.06;;;26.97;47.81
6435;BME280;3250;42.694;23.278;2022-07-10T09:28:20;94620.56;;;26.85;48.65
6435;BME280;3250;42.694;23.278;2022-07-10T09:30:46;94628.34;;;26.52;47.58
6435;BME280;3250;42.694;23.278;2022-07-10T09:33:24;94624.50;;;26.27;50.62
6435;BME280;3250;42.694;23.278;2022-07-10T09:36:02;94618.88;;;26.15;48.59
6435;BME280;3250;42.694;23.278;2022-07-10T09:41:13;94622.94;;;26.70;49.59
6435;BME280;3250;42.694;23.278;2022-07-10T09:43:50;94618.84;;;26.98;49.81
6435;BME280;3250;42.694;23.278;2022-07-10T09:46:18;94612.13;;;27.21;49.19
6435;BME280;3250;42.694;23.278;2022-07-10T09:48:44;94615.06;;;27.46;47.20
6435;BME280;3250;42.694;23.278;2022-07-10T09:51:10;94616.19;;;27.45;45.70
6435;BME280;3250;42.694;23.278;2022-07-10T09:53:43;94610.94;;;27.48;46.55
6435;BME280;3250;42.694;23.278;2022-07-10T09:56:12;94613.97;;;27.55;46.61
6435;BME280;3250;42.694;23.278;2022-07-10T09:58:39;94603.75;;;27.61;45.32
6435;BME280;3250;42.694;23.278;2022-07-10T10:01:06;94608.88;;;27.54;46.79
6435;BME280;3250;42.694;23.278;2022-07-10T10:03:38;94616.69;;;27.38;45.85
6435;BME280;3250;42.694;23.278;2022-07-10T10:06:11;94612.28;;;27.08;47.03
6435;BME280;3250;42.694;23.278;2022-07-10T10:08:48;94613.09;;;26.91;47.42
6435;BME280;3250;42.694;23.278;2022-07-10T10:11:20;94616.75;;;27.03;51.42
6435;BME280;3250;42.694;23.278;2022-07-10T10:13:49;94609.41;;;27.21;49.27
6435;BME280;3250;42.694;23.278;2022-07-10T10:16:15;94610.47;;;27.46;47.82
6435;BME280;3250;42.694;23.278;2022-07-10T10:18:43;94618.25;;;27.48;47.16
6435;BME280;3250;42.694;23.278;2022-07-10T10:21:28;94600.66;;;27.16;47.34
6435;BME280;3250;42.694;23.278;2022-07-10T10:23:54;94614.22;;;26.98;47.32
6435;BME280;3250;42.694;23.278;2022-07-10T10:26:23;94611.19;;;26.74;47.62
6435;BME280;3250;42.694;23.278;2022-07-10T10:28:52;94605.63;;;26.45;48.37
6435;BME280;3250;42.694;23.278;2022-07-10T10:31:19;94604.03;;;26.35;48.84
6435;BME280;3250;42.694;23.278;2022-07-10T10:33:45;94603.63;;;26.02;48.83
6435;BME280;3250;42.694;23.278;2022-07-10T10:36:14;94599.88;;;25.72;49.98
6435;BME280;3250;42.694;23.278;2022-07-10T10:41:29;94598.81;;;25.51;49.35
6435;BME280;3250;42.694;23.278;2022-07-10T10:44:20;94596.38;;;25.41;48.32
6435;BME280;3250;42.694;23.278;2022-07-10T10:47:00;94582.63;;;25.20;52.06
6435;BME280;3250;42.694;23.278;2022-07-10T10:49:28;94592.41;;;25.38;51.61
6435;BME280;3250;42.694;23.278;2022-07-10T10:52:12;94598.19;;;25.54;53.08
6435;BME280;3250;42.694;23.278;2022-07-10T10:57:17;94588.81;;;25.91;52.39
6435;BME280;3250;42.694;23.278;2022-07-10T10:59:54;94589.06;;;26.20;51.33
6435;BME280;3250;42.694;23.278;2022-07-10T11:02:29;94592.25;;;26.40;47.81
6435;BME280;3250;42.694;23.278;2022-07-10T11:08:03;94582.25;;;26.57;47.71
6435;BME280;3250;42.694;23.278;2022-07-10T11:10:37;94572.44;;;26.70;49.33
6435;BME280;3250;42.694;23.278;2022-07-10T11:15:43;94573.94;;;27.31;48.33
6435;BME280;3250;42.694;23.278;2022-07-10T11:18:12;94562.50;;;27.17;45.56
6435;BME280;3250;42.694;23.278;2022-07-10T11:20:40;94588.31;;;26.89;48.20
6435;BME280;3250;42.694;23.278;2022-07-10T11:26:07;94556.19;;;26.87;50.54
6435;BME280;3250;42.694;23.278;2022-07-10T11:31:07;94563.50;;;27.04;47.80
6435;BME280;3250;42.694;23.278;2022-07-10T11:33:40;94578.44;;;27.10;47.63
6435;BME280;3250;42.694;23.278;2022-07-10T11:36:12;94556.34;;;26.82;48.30
6435;BME280;3250;42.694;23.278;2022-07-10T11:38:40;94573.06;;;26.93;48.75
6435;BME280;3250;42.694;23.278;2022-07-10T11:41:19;94563.22;;;26.97;50.28
6435;BME280;3250;42.694;23.278;2022-07-10T11:46:13;94566.84;;;27.01;49.04
6435;BME280;3250;42.694;23.278;2022-07-10T11:48:40;94567.94;;;27.00;47.71
6435;BME280;3250;42.694;23.278;2022-07-10T11:56:24;94571.88;;;27.20;48.55
6435;BME280;3250;42.694;23.278;2022-07-10T11:59:04;94572.97;;;27.27;48.05
6435;BME280;3250;42.694;23.278;2022-07-10T12:01:35;94563.59;;;27.25;47.14
6435;BME280;3250;42.694;23.278;2022-07-10T12:04:04;94573.63;;;27.33;46.43
6435;BME280;3250;42.694;23.278;2022-07-10T12:06:32;94568.22;;;27.24;45.76
6435;BME280;3250;42.694;23.278;2022-07-10T12:09:08;94575.75;;;27.01;45.91
6435;BME280;3250;42.694;23.278;2022-07-10T12:11:34;94565.75;;;26.76;47.19
6435;BME280;3250;42.694;23.278;2022-07-10T12:16:37;94582.56;;;26.73;47.79
6435;BME280;3250;42.694;23.278;2022-07-10T12:19:03;94584.47;;;26.73;47.80
6435;BME280;3250;42.694;23.278;2022-07-10T12:21:29;94569.88;;;26.65;47.04
6435;BME280;3250;42.694;23.278;2022-07-10T12:23:55;94589.75;;;26.69;45.89
6435;BME280;3250;42.694;23.278;2022-07-10T12:26:21;94571.78;;;26.56;46.71
6435;BME280;3250;42.694;23.278;2022-07-10T12:28:55;94580.03;;;26.42;47.89
6435;BME280;3250;42.694;23.278;2022-07-10T12:31:27;94573.38;;;26.40;48.10
6435;BME280;3250;42.694;23.278;2022-07-10T12:33:56;94568.41;;;26.24;46.94
6435;BME280;3250;42.694;23.278;2022-07-10T12:36:25;94584.91;;;26.23;46.62
6435;BME280;3250;42.694;23.278;2022-07-10T12:38:56;94583.00;;;26.23;46.80
6435;BME280;3250;42.694;23.278;2022-07-10T12:41:23;94581.09;;;26.15;44.56
6435;BME280;3250;42.694;23.278;2022-07-10T12:43:51;94569.00;;;26.13;44.66
6435;BME280;3250;42.694;23.278;2022-07-10T12:46:22;94581.41;;;26.22;44.90
6435;BME280;3250;42.694;23.278;2022-07-10T12:49:07;94581.63;;;26.26;45.12
6435;BME280;3250;42.694;23.278;2022-07-10T12:51:44;94584.16;;;26.31;43.89
6435;BME280;3250;42.694;23.278;2022-07-10T12:54:42;94587.47;;;26.19;44.05
6435;BME280;3250;42.694;23.278;2022-07-10T12:57:08;94562.50;;;26.05;43.82
6435;BME280;3250;42.694;23.278;2022-07-10T12:59:35;94577.47;;;26.20;43.00
6435;BME280;3250;42.694;23.278;2022-07-10T13:02:18;94566.66;;;26.11;42.02
6435;BME280;3250;42.694;23.278;2022-07-10T13:04:57;94583.81;;;26.24;43.49
6435;BME280;3250;42.694;23.278;2022-07-10T13:07:33;94582.25;;;26.32;41.83
6435;BME280;3250;42.694;23.278;2022-07-10T13:10:03;94582.75;;;26.34;42.33
6435;BME280;3250;42.694;23.278;2022-07-10T13:12:29;94566.06;;;26.32;41.85
6435;BME280;3250;42.694;23.278;2022-07-10T13:14:55;94557.34;;;26.43;41.43
6435;BME280;3250;42.694;23.278;2022-07-10T13:17:20;94571.47;;;26.66;42.10
6435;BME280;3250;42.694;23.278;2022-07-10T13:19:46;94574.00;;;26.80;42.17
6435;BME280;3250;42.694;23.278;2022-07-10T13:22:12;94575.13;;;26.53;39.24
6435;BME280;3250;42.694;23.278;2022-07-10T13:24:37;94574.81;;;26.37;41.73
6435;BME280;3250;42.694;23.278;2022-07-10T13:27:03;94555.72;;;26.25;42.23
6435;BME280;3250;42.694;23.278;2022-07-10T13:29:28;94580.66;;;26.39;40.11
6435;BME280;3250;42.694;23.278;2022-07-10T13:31:54;94586.06;;;26.39;40.96
6435;BME280;3250;42.694;23.278;2022-07-10T13:34:19;94581.78;;;26.38;41.50
6435;BME280;3250;42.694;23.278;2022-07-10T13:36:45;94558.56;;;26.20;41.09
6435;BME280;3250;42.694;23.278;2022-07-10T13:39:10;94584.44;;;26.21;41.45
6435;BME280;3250;42.694;23.278;2022-07-10T13:41:36;94579.47;;;26.06;42.09